Portada
METAR-TAF:

METAR-TAF

Aeroports :

Kassel, Alemanya

latitud: 51-24N, longitud: 009-23E, altitud: 277 m

Observació

L'informe es va fer fa 33 minuts, a les 15:50 UTC
Vent 11 kt del Oest/Sud-Oest
Temperatura 7°C
Humitat 81%
Pressió 1013 hPa
Visibilitat 10 km o més
Núvols disperses a una alçada de 2700 ft
Cel ennuvolat a una alçada de 5300 ft

METAR: EDVK 071550Z 25011KT 9999 SCT027 BKN053 07/04 Q1013

Hora: 17:23 (16:23 UTC)

Pronòstic

L'informe es va fer fa 2 hores i 23 minuts, a les 14:00 UTC
Pronòstic vàlid del 07 a les 15 UTC al 07 a les 24 UTC
Vent 10 kt del Oest
Visibilitat 10 km o més
Núvols disperses a una alçada de 2000 ft
Cel ennuvolat a una alçada de 3000 ft
Probabilitat 30% :
Temporalment
l' 07 a les 15 UTC al 07 a les 18 UTC
Visibilitat: 4500 m
Cel ennuvolat a una alçada de 1000 ft
pluja, plugim

TAF: EDVK 071400Z 0715/0724 26010KT 9999 SCT020 BKN030 PROB30 TEMPO 0715/0718 4500 -RADZ BKN010

Observacions i pronòstics meteorològics de més de 4000 aeroports (METAR i TAF).

Les estacions disponibles són els punts grocs i vermells al mapa.

Posi el ratolí al punt desitjat per veure el nom de l'estació.

Feu clic per veure les observacions i els pronòstics meteorològics.

Per canviar el mapa: feu clic els botons verds amb una creu de color negre per apropar; al botó verd amb un guió per allunyar la imatge; o en les fletxes verdes per a mapes adjacents.


METAR-TAF: